createdAt,value
2022-12-14T07:05:22.810Z,3.25
2022-12-14T07:07:50.745Z,2.65
2022-12-14T07:10:18.011Z,3.38
2022-12-14T07:12:45.201Z,2.72
2022-12-14T07:15:12.510Z,2.92
2022-12-14T07:17:39.903Z,2.30
2022-12-14T07:20:07.827Z,2.72
2022-12-14T07:22:35.808Z,2.70
2022-12-14T07:25:03.522Z,2.50
2022-12-14T07:27:30.704Z,2.55
2022-12-14T07:29:57.720Z,2.80
2022-12-14T07:32:24.864Z,2.60
2022-12-14T07:34:51.901Z,2.78
2022-12-14T07:37:19.026Z,2.50
2022-12-14T07:39:46.120Z,2.13
2022-12-14T07:42:13.257Z,2.75
2022-12-14T07:44:47.325Z,3.53
2022-12-14T07:47:16.683Z,2.50
2022-12-14T07:49:44.516Z,2.60
2022-12-14T07:52:11.574Z,2.50
2022-12-14T07:54:38.690Z,2.53
2022-12-14T07:57:05.766Z,2.85
2022-12-14T07:59:33.064Z,2.58
2022-12-14T08:02:00.246Z,2.10
2022-12-14T08:04:27.544Z,3.90
2022-12-14T08:06:55.105Z,3.08
2022-12-14T08:09:22.538Z,2.70
2022-12-14T08:11:49.706Z,2.25
2022-12-14T08:14:18.382Z,2.53
2022-12-14T08:16:46.383Z,3.42
2022-12-14T08:19:13.784Z,2.70
2022-12-14T08:21:41.305Z,2.83
2022-12-14T08:24:10.494Z,2.53
2022-12-14T08:26:37.576Z,2.60
2022-12-14T08:29:05.200Z,2.55
2022-12-14T08:31:32.868Z,2.17
2022-12-14T08:34:00.703Z,2.33
2022-12-14T08:36:29.776Z,2.33
2022-12-14T08:38:58.463Z,2.58
2022-12-14T08:41:26.071Z,2.38
2022-12-14T08:43:54.705Z,2.67
2022-12-14T08:46:22.273Z,2.92
2022-12-14T08:48:50.679Z,2.67
2022-12-14T08:51:18.216Z,2.83
2022-12-14T08:53:48.257Z,2.65
2022-12-14T08:56:17.392Z,3.00
2022-12-14T08:58:44.796Z,2.78
2022-12-14T09:01:14.107Z,2.63
2022-12-14T09:03:42.128Z,2.42
2022-12-14T09:06:10.178Z,2.80
2022-12-14T09:08:37.385Z,2.33
2022-12-14T09:11:05.473Z,2.72
2022-12-14T09:13:33.297Z,3.20
2022-12-14T09:16:03.665Z,2.88
2022-12-14T09:18:31.334Z,2.67
2022-12-14T09:20:58.807Z,2.60
2022-12-14T09:23:27.781Z,2.50
2022-12-14T09:25:59.214Z,2.90
2022-12-14T09:28:27.110Z,3.13
2022-12-14T09:30:54.992Z,2.67
2022-12-14T09:33:22.319Z,3.03
2022-12-14T09:35:49.823Z,3.10
2022-12-14T09:38:16.983Z,3.95
2022-12-14T09:40:48.813Z,3.83
2022-12-14T09:43:37.040Z,3.70
2022-12-14T09:46:11.693Z,3.13
2022-12-14T09:48:39.022Z,3.28
2022-12-14T09:51:06.356Z,3.72
2022-12-14T09:53:35.706Z,3.83
2022-12-14T09:56:03.050Z,3.15
2022-12-14T09:58:31.268Z,3.05
2022-12-14T10:06:41.483Z,3.38
2022-12-14T10:09:28.403Z,2.88
2022-12-14T10:17:36.853Z,3.97
2022-12-14T10:20:11.792Z,3.70
2022-12-14T10:22:42.673Z,4.25
2022-12-14T10:25:14.662Z,3.97
2022-12-14T10:28:09.834Z,4.35
2022-12-14T10:30:33.186Z,3.25
2022-12-14T10:33:11.705Z,3.45
2022-12-14T10:35:43.712Z,3.13
2022-12-14T10:38:18.110Z,3.60
2022-12-14T10:40:49.549Z,3.92
2022-12-14T10:43:36.653Z,3.78
2022-12-14T10:51:26.772Z,6.60
2022-12-14T10:54:13.698Z,5.25
2022-12-14T10:56:42.481Z,4.13
2022-12-14T11:07:17.899Z,4.28
2022-12-14T11:09:45.343Z,4.40
2022-12-14T11:14:55.897Z,3.92
2022-12-14T11:17:40.025Z,3.78
2022-12-14T11:22:53.662Z,4.13
2022-12-14T11:25:40.791Z,3.92
2022-12-14T11:28:32.796Z,3.50
2022-12-14T11:33:41.671Z,3.78
2022-12-14T11:36:09.059Z,4.18
2022-12-14T11:38:36.197Z,3.42
2022-12-14T11:41:10.610Z,4.85
2022-12-14T11:43:39.252Z,4.10
2022-12-14T11:46:06.478Z,4.28
2022-12-14T11:48:37.128Z,3.78
2022-12-14T11:51:13.048Z,3.47
2022-12-14T11:53:41.059Z,4.25
2022-12-14T11:56:12.580Z,3.72
2022-12-14T11:58:46.928Z,3.65
2022-12-14T12:01:15.442Z,3.30
2022-12-14T12:03:44.708Z,3.22
2022-12-14T12:06:12.941Z,3.90
2022-12-14T12:08:41.486Z,3.65
2022-12-14T12:11:17.569Z,3.45
2022-12-14T12:13:48.019Z,3.60
2022-12-14T12:18:56.501Z,3.67
2022-12-14T12:21:41.123Z,3.78
2022-12-14T12:32:06.868Z,3.00
2022-12-14T12:37:26.211Z,2.97
2022-12-14T12:39:57.585Z,2.50
2022-12-14T12:45:07.317Z,3.28
2022-12-14T12:47:47.121Z,2.35
2022-12-14T12:50:18.042Z,2.40
2022-12-14T12:53:05.014Z,2.90
2022-12-14T12:55:35.862Z,2.65
2022-12-14T12:58:03.441Z,2.50
2022-12-14T13:00:31.009Z,1.67
2022-12-14T13:02:59.851Z,1.92
2022-12-14T13:05:46.127Z,2.45
2022-12-14T13:08:19.526Z,1.77
2022-12-14T13:11:17.201Z,1.83
2022-12-14T13:13:35.756Z,1.98
2022-12-14T13:16:13.681Z,1.23
2022-12-14T13:19:01.849Z,1.58
2022-12-14T13:21:32.925Z,1.42
2022-12-14T13:24:00.166Z,1.23
2022-12-14T13:32:24.866Z,1.63
2022-12-14T13:35:11.838Z,1.02
2022-12-14T13:40:31.168Z,1.63
2022-12-14T13:43:18.549Z,1.42
2022-12-14T13:45:49.578Z,0.80
2022-12-14T13:51:02.327Z,1.05
2022-12-14T13:53:32.113Z,0.80
2022-12-14T13:56:00.199Z,0.70
2022-12-14T14:01:08.044Z,0.82
2022-12-14T14:09:03.324Z,1.00
2022-12-14T14:16:56.577Z,0.75
2022-12-14T14:19:26.619Z,1.02
2022-12-14T14:27:36.107Z,1.25
2022-12-14T14:30:05.441Z,0.98
2022-12-14T14:32:34.360Z,1.20
2022-12-14T14:35:03.287Z,0.70
2022-12-14T14:37:32.063Z,1.92
2022-12-14T14:40:16.650Z,2.17
2022-12-14T14:42:56.318Z,1.90
2022-12-14T14:45:27.837Z,1.67
2022-12-14T14:47:56.548Z,1.20
2022-12-14T14:50:26.285Z,1.67
2022-12-14T14:53:10.716Z,1.40
2022-12-14T14:58:38.121Z,1.80
2022-12-14T15:06:25.555Z,1.90
2022-12-14T15:08:57.001Z,1.67
2022-12-14T15:11:25.396Z,1.92
2022-12-14T15:14:13.092Z,2.15
2022-12-14T15:16:43.299Z,2.13
2022-12-14T15:19:28.401Z,1.73
2022-12-14T15:21:57.628Z,1.65
2022-12-14T15:24:25.620Z,1.88
2022-12-14T15:26:53.263Z,0.73
2022-12-14T15:29:24.348Z,1.13
2022-12-14T15:31:59.037Z,0.60
2022-12-14T15:34:26.819Z,1.35
2022-12-14T15:36:54.426Z,0.63
2022-12-14T15:39:40.399Z,0.77
2022-12-14T15:42:12.194Z,0.75
2022-12-14T15:44:43.958Z,1.10
2022-12-14T15:47:22.014Z,1.30
2022-12-14T15:49:49.959Z,1.40
2022-12-14T15:52:21.687Z,1.35
2022-12-14T15:54:48.828Z,1.33
2022-12-14T15:57:17.347Z,1.15
2022-12-14T15:59:45.452Z,1.30
2022-12-14T16:02:24.191Z,1.52
2022-12-14T16:04:52.422Z,1.42
2022-12-14T16:07:33.603Z,2.65
2022-12-14T16:10:02.234Z,1.85
2022-12-14T16:15:15.772Z,2.05
2022-12-14T16:17:42.913Z,1.77
2022-12-14T16:25:50.493Z,1.73
2022-12-14T16:28:20.420Z,1.73
2022-12-14T16:30:56.722Z,1.02
2022-12-14T16:33:24.861Z,1.05
2022-12-14T16:39:03.902Z,0.85
2022-12-14T16:41:37.261Z,1.17
2022-12-14T16:44:06.114Z,2.08
2022-12-14T16:46:33.278Z,2.33
2022-12-14T16:49:20.357Z,1.65
2022-12-14T16:52:07.344Z,1.25
2022-12-14T16:54:35.205Z,1.30
2022-12-14T16:57:07.142Z,0.98
2022-12-14T17:05:11.907Z,0.82
2022-12-14T17:07:39.032Z,1.30
2022-12-14T17:10:11.931Z,0.98
2022-12-14T17:12:40.035Z,1.35
2022-12-14T17:15:07.296Z,1.08
2022-12-14T17:17:36.143Z,1.40
2022-12-14T17:20:07.987Z,1.02
2022-12-14T17:22:38.252Z,1.23
2022-12-14T17:25:05.549Z,1.25
2022-12-14T17:27:32.683Z,1.58
2022-12-14T17:29:59.738Z,1.23
2022-12-14T17:32:29.898Z,1.27
2022-12-14T17:34:57.237Z,1.40
2022-12-14T17:37:25.022Z,1.35
2022-12-14T17:39:52.104Z,1.50
2022-12-14T17:42:20.721Z,1.15
2022-12-14T17:44:54.571Z,1.77
2022-12-14T17:47:22.968Z,1.70
2022-12-14T17:49:50.056Z,1.40
2022-12-14T17:52:18.637Z,1.25
2022-12-14T17:54:46.214Z,1.63
2022-12-14T17:57:17.636Z,1.50
2022-12-14T17:59:47.734Z,1.83
2022-12-14T18:02:24.399Z,1.35
2022-12-14T18:04:52.284Z,1.42
2022-12-14T18:07:19.388Z,1.40
2022-12-14T18:09:47.288Z,1.45
2022-12-14T18:12:24.314Z,1.35
2022-12-14T18:14:52.276Z,1.50
2022-12-14T18:17:19.559Z,1.20
2022-12-14T18:19:47.941Z,1.48
2022-12-14T18:22:16.982Z,1.30
2022-12-14T18:24:44.146Z,1.17
2022-12-14T18:27:15.391Z,1.30
2022-12-14T18:29:42.448Z,1.40
2022-12-14T18:32:13.172Z,1.30
2022-12-14T18:34:40.267Z,1.33
2022-12-14T18:37:07.370Z,1.42
2022-12-14T18:39:35.460Z,1.77
2022-12-14T18:42:02.752Z,1.38
2022-12-14T18:44:29.908Z,1.50
2022-12-14T18:47:05.501Z,1.00
2022-12-14T18:49:41.977Z,1.25
2022-12-14T18:52:10.017Z,2.00
2022-12-14T18:54:37.193Z,1.65
2022-12-14T18:57:04.455Z,1.52
2022-12-14T18:59:31.510Z,1.48
2022-12-14T19:01:59.042Z,1.20
2022-12-14T19:04:26.726Z,1.40
2022-12-14T19:06:55.392Z,1.42
2022-12-14T19:09:22.486Z,1.40
2022-12-14T19:11:49.524Z,1.40
2022-12-14T19:14:16.671Z,1.23
2022-12-14T19:16:43.819Z,1.10
2022-12-14T19:19:11.027Z,1.30
2022-12-14T19:21:38.119Z,1.30
2022-12-14T19:24:08.800Z,1.83
2022-12-14T19:26:38.042Z,1.50
2022-12-14T19:29:05.217Z,1.60
2022-12-14T19:31:33.220Z,1.88
2022-12-14T19:34:00.658Z,1.42
2022-12-14T19:36:27.734Z,2.15
2022-12-14T19:38:54.818Z,1.08
2022-12-14T19:41:22.175Z,2.25
2022-12-14T19:43:49.292Z,1.63
2022-12-14T19:46:17.921Z,1.58
2022-12-14T19:48:45.409Z,1.65
2022-12-14T19:51:13.763Z,2.05
2022-12-14T19:53:41.472Z,1.80
2022-12-14T19:56:08.950Z,2.38
2022-12-14T19:58:36.033Z,2.13
2022-12-14T20:01:07.527Z,2.00
2022-12-14T20:03:35.181Z,1.65
2022-12-14T20:06:03.675Z,1.88
2022-12-14T20:08:31.145Z,2.67
2022-12-14T20:10:59.181Z,2.08
2022-12-14T20:13:27.238Z,2.63
2022-12-14T20:15:55.811Z,1.88
2022-12-14T20:18:22.962Z,1.67
2022-12-14T20:20:50.536Z,2.53
2022-12-14T20:23:18.414Z,1.98
2022-12-14T20:25:45.646Z,2.35
2022-12-14T20:28:12.723Z,2.03
2022-12-14T20:30:44.426Z,2.08
2022-12-14T20:33:11.684Z,2.80
2022-12-14T20:35:39.030Z,1.75
2022-12-14T20:38:06.154Z,2.33
2022-12-14T20:40:38.575Z,2.28
2022-12-14T20:43:07.192Z,2.25
2022-12-14T20:45:38.224Z,1.77
2022-12-14T20:48:05.711Z,1.70
2022-12-14T20:50:32.880Z,1.88
2022-12-14T20:53:00.035Z,1.75
2022-12-14T20:55:27.200Z,1.70
2022-12-14T20:57:54.391Z,1.35
2022-12-14T21:00:21.653Z,1.85
2022-12-14T21:02:48.887Z,1.60
2022-12-14T21:05:16.602Z,1.90
2022-12-14T21:07:43.803Z,1.60
2022-12-14T21:10:10.926Z,1.38
2022-12-14T21:12:38.087Z,1.48
2022-12-14T21:15:05.445Z,1.67
2022-12-14T21:17:32.522Z,1.30
2022-12-14T21:19:59.629Z,1.55
2022-12-14T21:22:28.097Z,1.83
2022-12-14T21:25:04.786Z,1.45
2022-12-14T21:27:33.209Z,1.75
2022-12-14T21:30:01.137Z,1.77
2022-12-14T21:32:28.687Z,1.75
2022-12-14T21:34:55.818Z,1.95
2022-12-14T21:37:23.461Z,1.98
2022-12-14T21:39:55.140Z,1.50
2022-12-14T21:42:23.687Z,1.55
2022-12-14T21:44:51.907Z,1.75
2022-12-14T21:47:20.785Z,1.77
2022-12-14T21:49:48.345Z,1.63
2022-12-14T21:52:17.100Z,2.33
2022-12-14T21:54:44.684Z,1.80
2022-12-14T21:57:35.840Z,1.77
2022-12-14T22:00:03.278Z,2.03
2022-12-14T22:02:51.393Z,2.67
2022-12-14T22:05:18.607Z,2.25
2022-12-14T22:07:45.938Z,1.73
2022-12-14T22:10:13.460Z,2.00
2022-12-14T22:12:40.577Z,2.40
2022-12-14T22:15:08.564Z,2.20
2022-12-14T22:17:35.805Z,2.55
2022-12-14T22:20:03.119Z,1.50
2022-12-14T22:22:30.323Z,2.17
2022-12-14T22:24:57.451Z,1.88
2022-12-14T22:27:24.620Z,1.80
2022-12-14T22:29:51.806Z,1.80
2022-12-14T22:32:19.024Z,2.03
2022-12-14T22:34:46.211Z,2.35
2022-12-14T22:37:16.844Z,2.05
2022-12-14T22:39:44.051Z,1.70
2022-12-14T22:42:15.429Z,2.10
2022-12-14T22:44:42.501Z,1.80
2022-12-14T22:47:09.639Z,1.98
2022-12-14T22:49:36.721Z,1.80
2022-12-14T22:52:03.820Z,2.17
2022-12-14T22:54:31.080Z,2.28
2022-12-14T22:57:00.413Z,2.40
2022-12-14T22:59:30.703Z,2.80
2022-12-14T23:01:58.912Z,2.35
2022-12-14T23:04:26.512Z,2.35
2022-12-14T23:06:54.478Z,2.45
2022-12-14T23:09:41.723Z,2.60
2022-12-14T23:12:28.700Z,1.98
2022-12-14T23:15:15.641Z,2.63
2022-12-14T23:18:02.557Z,2.38
2022-12-14T23:20:49.552Z,2.05
2022-12-14T23:23:36.624Z,2.33
2022-12-14T23:26:23.960Z,2.20
2022-12-14T23:29:10.941Z,1.70
2022-12-14T23:31:57.923Z,2.42
2022-12-14T23:34:44.807Z,2.25
2022-12-14T23:37:35.011Z,2.10
2022-12-14T23:40:21.905Z,2.47
2022-12-14T23:43:08.809Z,2.05
2022-12-14T23:45:55.892Z,2.20
2022-12-14T23:48:42.962Z,1.73
2022-12-14T23:51:29.900Z,2.00
2022-12-14T23:54:16.847Z,1.75
2022-12-14T23:57:03.882Z,1.92
2022-12-14T23:59:50.894Z,1.95
